sensor_id;sensor_type;location;lat;lon;timestamp;P1;durP1;ratioP1;P2;durP2;ratioP2
3491;SDS011;1760;52.480;13.422;2022-11-12T00:00:49;5.97;;;4.30;;
3491;SDS011;1760;52.480;13.422;2022-11-12T00:03:18;6.00;;;4.20;;
3491;SDS011;1760;52.480;13.422;2022-11-12T00:05:45;5.30;;;3.67;;
3491;SDS011;1760;52.480;13.422;2022-11-12T00:08:13;6.37;;;4.60;;
3491;SDS011;1760;52.480;13.422;2022-11-12T00:10:40;11.07;;;6.87;;
3491;SDS011;1760;52.480;13.422;2022-11-12T00:13:07;8.47;;;5.10;;
3491;SDS011;1760;52.480;13.422;2022-11-12T00:15:36;6.20;;;5.10;;
3491;SDS011;1760;52.480;13.422;2022-11-12T00:18:03;13.83;;;5.20;;
3491;SDS011;1760;52.480;13.422;2022-11-12T00:20:31;6.40;;;4.87;;
3491;SDS011;1760;52.480;13.422;2022-11-12T00:22:58;9.60;;;3.80;;
3491;SDS011;1760;52.480;13.422;2022-11-12T00:25:25;5.60;;;3.73;;
3491;SDS011;1760;52.480;13.422;2022-11-12T00:27:52;5.00;;;3.53;;
3491;SDS011;1760;52.480;13.422;2022-11-12T00:30:19;7.87;;;4.47;;
3491;SDS011;1760;52.480;13.422;2022-11-12T00:32:48;11.00;;;4.17;;
3491;SDS011;1760;52.480;13.422;2022-11-12T00:35:14;6.73;;;3.70;;
3491;SDS011;1760;52.480;13.422;2022-11-12T00:37:41;5.47;;;3.73;;
3491;SDS011;1760;52.480;13.422;2022-11-12T00:40:09;5.37;;;4.03;;
3491;SDS011;1760;52.480;13.422;2022-11-12T00:42:36;6.53;;;3.90;;
3491;SDS011;1760;52.480;13.422;2022-11-12T00:45:03;12.03;;;3.67;;
3491;SDS011;1760;52.480;13.422;2022-11-12T00:47:30;8.10;;;3.70;;
3491;SDS011;1760;52.480;13.422;2022-11-12T00:49:59;5.73;;;3.63;;
3491;SDS011;1760;52.480;13.422;2022-11-12T00:52:26;8.57;;;3.97;;
3491;SDS011;1760;52.480;13.422;2022-11-12T00:54:53;8.70;;;3.70;;
3491;SDS011;1760;52.480;13.422;2022-11-12T00:57:19;7.43;;;3.60;;
3491;SDS011;1760;52.480;13.422;2022-11-12T00:59:46;5.43;;;3.80;;
3491;SDS011;1760;52.480;13.422;2022-11-12T01:02:13;4.40;;;3.17;;
3491;SDS011;1760;52.480;13.422;2022-11-12T01:04:40;5.20;;;3.90;;
3491;SDS011;1760;52.480;13.422;2022-11-12T01:07:08;5.77;;;3.53;;
3491;SDS011;1760;52.480;13.422;2022-11-12T01:09:35;3.83;;;3.47;;
3491;SDS011;1760;52.480;13.422;2022-11-12T01:12:02;7.57;;;4.10;;
3491;SDS011;1760;52.480;13.422;2022-11-12T01:14:29;4.37;;;3.20;;
3491;SDS011;1760;52.480;13.422;2022-11-12T01:16:56;5.80;;;3.63;;
3491;SDS011;1760;52.480;13.422;2022-11-12T01:19:23;7.47;;;3.93;;
3491;SDS011;1760;52.480;13.422;2022-11-12T01:21:50;5.93;;;3.30;;
3491;SDS011;1760;52.480;13.422;2022-11-12T01:24:18;4.60;;;3.10;;
3491;SDS011;1760;52.480;13.422;2022-11-12T01:26:46;4.93;;;3.40;;
3491;SDS011;1760;52.480;13.422;2022-11-12T01:29:13;7.40;;;3.53;;
3491;SDS011;1760;52.480;13.422;2022-11-12T01:31:40;4.07;;;3.07;;
3491;SDS011;1760;52.480;13.422;2022-11-12T01:34:07;5.37;;;2.80;;
3491;SDS011;1760;52.480;13.422;2022-11-12T01:36:35;4.13;;;3.60;;
3491;SDS011;1760;52.480;13.422;2022-11-12T01:39:04;6.27;;;3.47;;
3491;SDS011;1760;52.480;13.422;2022-11-12T01:41:34;3.87;;;2.50;;
3491;SDS011;1760;52.480;13.422;2022-11-12T01:44:11;9.10;;;4.30;;
3491;SDS011;1760;52.480;13.422;2022-11-12T01:46:43;6.83;;;3.30;;
3491;SDS011;1760;52.480;13.422;2022-11-12T01:49:17;5.70;;;3.63;;
3491;SDS011;1760;52.480;13.422;2022-11-12T01:51:49;13.30;;;4.10;;
3491;SDS011;1760;52.480;13.422;2022-11-12T01:54:19;5.63;;;4.30;;
3491;SDS011;1760;52.480;13.422;2022-11-12T01:56:48;5.63;;;3.23;;
3491;SDS011;1760;52.480;13.422;2022-11-12T01:59:17;4.97;;;3.20;;
3491;SDS011;1760;52.480;13.422;2022-11-12T02:01:48;7.07;;;3.23;;
3491;SDS011;1760;52.480;13.422;2022-11-12T02:04:15;4.90;;;3.60;;
3491;SDS011;1760;52.480;13.422;2022-11-12T02:06:42;5.27;;;2.80;;
3491;SDS011;1760;52.480;13.422;2022-11-12T02:09:12;3.17;;;2.30;;
3491;SDS011;1760;52.480;13.422;2022-11-12T02:11:39;5.53;;;3.27;;
3491;SDS011;1760;52.480;13.422;2022-11-12T02:14:07;6.43;;;2.93;;
3491;SDS011;1760;52.480;13.422;2022-11-12T02:16:35;5.37;;;3.10;;
3491;SDS011;1760;52.480;13.422;2022-11-12T02:19:05;3.90;;;2.93;;
3491;SDS011;1760;52.480;13.422;2022-11-12T02:21:35;5.10;;;3.23;;
3491;SDS011;1760;52.480;13.422;2022-11-12T02:24:03;6.07;;;3.40;;
3491;SDS011;1760;52.480;13.422;2022-11-12T02:26:32;5.60;;;3.23;;
3491;SDS011;1760;52.480;13.422;2022-11-12T02:29:02;4.97;;;3.00;;
3491;SDS011;1760;52.480;13.422;2022-11-12T02:31:32;4.80;;;3.13;;
3491;SDS011;1760;52.480;13.422;2022-11-12T02:33:59;9.03;;;2.43;;
3491;SDS011;1760;52.480;13.422;2022-11-12T02:36:26;3.50;;;2.20;;
3491;SDS011;1760;52.480;13.422;2022-11-12T02:38:55;7.00;;;2.60;;
3491;SDS011;1760;52.480;13.422;2022-11-12T02:41:22;7.13;;;3.20;;
3491;SDS011;1760;52.480;13.422;2022-11-12T02:43:49;3.93;;;2.53;;
3491;SDS011;1760;52.480;13.422;2022-11-12T02:46:16;5.47;;;3.13;;
3491;SDS011;1760;52.480;13.422;2022-11-12T02:48:43;4.30;;;2.63;;
3491;SDS011;1760;52.480;13.422;2022-11-12T02:51:18;4.47;;;2.80;;
3491;SDS011;1760;52.480;13.422;2022-11-12T02:53:47;5.03;;;2.33;;
3491;SDS011;1760;52.480;13.422;2022-11-12T02:56:20;4.63;;;2.50;;
3491;SDS011;1760;52.480;13.422;2022-11-12T02:58:47;4.30;;;2.43;;
3491;SDS011;1760;52.480;13.422;2022-11-12T03:01:15;4.77;;;2.67;;
3491;SDS011;1760;52.480;13.422;2022-11-12T03:03:41;3.67;;;2.40;;
3491;SDS011;1760;52.480;13.422;2022-11-12T03:06:16;4.07;;;2.53;;
3491;SDS011;1760;52.480;13.422;2022-11-12T03:08:51;3.10;;;2.50;;
3491;SDS011;1760;52.480;13.422;2022-11-12T03:11:19;10.00;;;2.53;;
3491;SDS011;1760;52.480;13.422;2022-11-12T03:13:46;10.50;;;3.33;;
3491;SDS011;1760;52.480;13.422;2022-11-12T03:16:13;10.47;;;2.93;;
3491;SDS011;1760;52.480;13.422;2022-11-12T03:18:40;4.50;;;2.50;;
3491;SDS011;1760;52.480;13.422;2022-11-12T03:21:07;10.53;;;6.10;;
3491;SDS011;1760;52.480;13.422;2022-11-12T03:23:34;3.70;;;2.13;;
3491;SDS011;1760;52.480;13.422;2022-11-12T03:26:01;4.07;;;2.60;;
3491;SDS011;1760;52.480;13.422;2022-11-12T03:28:30;4.40;;;3.43;;
3491;SDS011;1760;52.480;13.422;2022-11-12T03:30:57;9.17;;;3.00;;
3491;SDS011;1760;52.480;13.422;2022-11-12T03:33:25;10.50;;;2.23;;
3491;SDS011;1760;52.480;13.422;2022-11-12T03:35:52;5.97;;;2.40;;
3491;SDS011;1760;52.480;13.422;2022-11-12T03:38:20;4.43;;;2.70;;
3491;SDS011;1760;52.480;13.422;2022-11-12T03:40:52;5.90;;;2.50;;
3491;SDS011;1760;52.480;13.422;2022-11-12T03:43:18;3.77;;;2.10;;
3491;SDS011;1760;52.480;13.422;2022-11-12T03:45:50;4.20;;;2.60;;
3491;SDS011;1760;52.480;13.422;2022-11-12T03:48:17;12.53;;;2.83;;
3491;SDS011;1760;52.480;13.422;2022-11-12T03:50:44;3.30;;;2.70;;
3491;SDS011;1760;52.480;13.422;2022-11-12T03:53:13;10.40;;;2.60;;
3491;SDS011;1760;52.480;13.422;2022-11-12T03:55:41;4.20;;;2.60;;
3491;SDS011;1760;52.480;13.422;2022-11-12T03:58:08;3.67;;;2.60;;
3491;SDS011;1760;52.480;13.422;2022-11-12T04:00:35;6.40;;;2.33;;
3491;SDS011;1760;52.480;13.422;2022-11-12T04:03:03;3.00;;;2.33;;
3491;SDS011;1760;52.480;13.422;2022-11-12T04:05:30;4.00;;;2.70;;
3491;SDS011;1760;52.480;13.422;2022-11-12T04:08:15;5.37;;;3.20;;
3491;SDS011;1760;52.480;13.422;2022-11-12T04:11:01;14.20;;;7.80;;
3491;SDS011;1760;52.480;13.422;2022-11-12T04:13:29;11.60;;;5.70;;
3491;SDS011;1760;52.480;13.422;2022-11-12T04:15:57;12.20;;;3.63;;
3491;SDS011;1760;52.480;13.422;2022-11-12T04:18:45;3.57;;;3.07;;
3491;SDS011;1760;52.480;13.422;2022-11-12T04:21:31;6.83;;;2.90;;
3491;SDS011;1760;52.480;13.422;2022-11-12T04:24:28;3.40;;;2.77;;
3491;SDS011;1760;52.480;13.422;2022-11-12T04:27:15;6.27;;;3.03;;
3491;SDS011;1760;52.480;13.422;2022-11-12T04:29:44;5.33;;;2.93;;
3491;SDS011;1760;52.480;13.422;2022-11-12T04:32:29;4.20;;;2.47;;
3491;SDS011;1760;52.480;13.422;2022-11-12T04:35:01;5.67;;;3.00;;
3491;SDS011;1760;52.480;13.422;2022-11-12T04:37:30;4.30;;;2.70;;
3491;SDS011;1760;52.480;13.422;2022-11-12T04:40:09;4.20;;;3.10;;
3491;SDS011;1760;52.480;13.422;2022-11-12T04:42:50;7.10;;;3.57;;
3491;SDS011;1760;52.480;13.422;2022-11-12T04:45:35;2.93;;;2.13;;
3491;SDS011;1760;52.480;13.422;2022-11-12T04:48:05;2.90;;;2.23;;
3491;SDS011;1760;52.480;13.422;2022-11-12T04:50:33;4.57;;;3.37;;
3491;SDS011;1760;52.480;13.422;2022-11-12T04:53:05;4.30;;;2.60;;
3491;SDS011;1760;52.480;13.422;2022-11-12T04:55:32;4.13;;;2.70;;
3491;SDS011;1760;52.480;13.422;2022-11-12T04:58:01;3.37;;;2.23;;
3491;SDS011;1760;52.480;13.422;2022-11-12T05:00:28;7.90;;;3.43;;
3491;SDS011;1760;52.480;13.422;2022-11-12T05:02:55;4.27;;;2.53;;
3491;SDS011;1760;52.480;13.422;2022-11-12T05:05:22;6.97;;;3.07;;
3491;SDS011;1760;52.480;13.422;2022-11-12T05:07:51;3.43;;;2.40;;
3491;SDS011;1760;52.480;13.422;2022-11-12T05:10:18;4.57;;;2.53;;
3491;SDS011;1760;52.480;13.422;2022-11-12T05:12:45;3.83;;;3.43;;
3491;SDS011;1760;52.480;13.422;2022-11-12T05:15:11;3.73;;;3.07;;
3491;SDS011;1760;52.480;13.422;2022-11-12T05:17:41;3.63;;;2.50;;
3491;SDS011;1760;52.480;13.422;2022-11-12T05:20:09;4.87;;;2.87;;
3491;SDS011;1760;52.480;13.422;2022-11-12T05:22:37;2.30;;;2.10;;
3491;SDS011;1760;52.480;13.422;2022-11-12T05:25:06;4.10;;;2.37;;
3491;SDS011;1760;52.480;13.422;2022-11-12T05:27:36;5.23;;;3.87;;
3491;SDS011;1760;52.480;13.422;2022-11-12T05:30:04;8.17;;;2.60;;
3491;SDS011;1760;52.480;13.422;2022-11-12T05:32:34;5.63;;;2.87;;
3491;SDS011;1760;52.480;13.422;2022-11-12T05:35:01;4.47;;;2.37;;
3491;SDS011;1760;52.480;13.422;2022-11-12T05:37:28;3.60;;;3.10;;
3491;SDS011;1760;52.480;13.422;2022-11-12T05:39:57;3.77;;;2.97;;
3491;SDS011;1760;52.480;13.422;2022-11-12T05:42:25;4.63;;;3.33;;
3491;SDS011;1760;52.480;13.422;2022-11-12T05:44:55;4.73;;;2.43;;
3491;SDS011;1760;52.480;13.422;2022-11-12T05:47:22;7.13;;;2.67;;
3491;SDS011;1760;52.480;13.422;2022-11-12T05:49:49;4.43;;;3.17;;
3491;SDS011;1760;52.480;13.422;2022-11-12T05:52:16;3.00;;;2.60;;
3491;SDS011;1760;52.480;13.422;2022-11-12T05:54:43;3.43;;;2.47;;
3491;SDS011;1760;52.480;13.422;2022-11-12T05:57:10;3.57;;;2.43;;
3491;SDS011;1760;52.480;13.422;2022-11-12T05:59:42;5.57;;;2.97;;
3491;SDS011;1760;52.480;13.422;2022-11-12T06:02:09;2.83;;;2.53;;
3491;SDS011;1760;52.480;13.422;2022-11-12T06:04:37;3.00;;;2.70;;
3491;SDS011;1760;52.480;13.422;2022-11-12T06:07:06;4.30;;;3.20;;
3491;SDS011;1760;52.480;13.422;2022-11-12T06:09:33;5.30;;;3.17;;
3491;SDS011;1760;52.480;13.422;2022-11-12T06:12:01;4.67;;;2.47;;
3491;SDS011;1760;52.480;13.422;2022-11-12T06:14:30;3.57;;;2.30;;
3491;SDS011;1760;52.480;13.422;2022-11-12T06:16:59;4.73;;;3.00;;
3491;SDS011;1760;52.480;13.422;2022-11-12T06:19:25;4.60;;;3.20;;
3491;SDS011;1760;52.480;13.422;2022-11-12T06:21:52;3.20;;;2.67;;
3491;SDS011;1760;52.480;13.422;2022-11-12T06:24:21;5.93;;;2.73;;
3491;SDS011;1760;52.480;13.422;2022-11-12T06:26:48;6.63;;;3.47;;
3491;SDS011;1760;52.480;13.422;2022-11-12T06:29:15;3.27;;;2.20;;
3491;SDS011;1760;52.480;13.422;2022-11-12T06:31:42;5.03;;;2.90;;
3491;SDS011;1760;52.480;13.422;2022-11-12T06:34:11;3.97;;;2.90;;
3491;SDS011;1760;52.480;13.422;2022-11-12T06:36:38;4.53;;;2.50;;
3491;SDS011;1760;52.480;13.422;2022-11-12T06:39:05;7.03;;;3.40;;
3491;SDS011;1760;52.480;13.422;2022-11-12T06:41:32;4.47;;;3.00;;
3491;SDS011;1760;52.480;13.422;2022-11-12T06:43:58;9.03;;;3.13;;
3491;SDS011;1760;52.480;13.422;2022-11-12T06:46:25;3.93;;;3.10;;
3491;SDS011;1760;52.480;13.422;2022-11-12T06:48:52;8.10;;;2.80;;
3491;SDS011;1760;52.480;13.422;2022-11-12T06:51:20;3.33;;;2.50;;
3491;SDS011;1760;52.480;13.422;2022-11-12T06:53:47;6.40;;;2.97;;
3491;SDS011;1760;52.480;13.422;2022-11-12T06:56:15;4.70;;;2.77;;
3491;SDS011;1760;52.480;13.422;2022-11-12T06:58:43;3.70;;;2.57;;
3491;SDS011;1760;52.480;13.422;2022-11-12T07:01:11;4.43;;;3.10;;
3491;SDS011;1760;52.480;13.422;2022-11-12T07:03:39;4.40;;;3.30;;
3491;SDS011;1760;52.480;13.422;2022-11-12T07:06:07;3.47;;;3.10;;
3491;SDS011;1760;52.480;13.422;2022-11-12T07:08:38;6.20;;;3.40;;
3491;SDS011;1760;52.480;13.422;2022-11-12T07:11:05;4.10;;;2.83;;
3491;SDS011;1760;52.480;13.422;2022-11-12T07:13:32;9.53;;;3.40;;
3491;SDS011;1760;52.480;13.422;2022-11-12T07:16:00;3.63;;;2.50;;
3491;SDS011;1760;52.480;13.422;2022-11-12T07:18:29;7.53;;;2.83;;
3491;SDS011;1760;52.480;13.422;2022-11-12T07:20:57;5.10;;;2.60;;
3491;SDS011;1760;52.480;13.422;2022-11-12T07:23:25;4.20;;;3.03;;
3491;SDS011;1760;52.480;13.422;2022-11-12T07:25:57;5.93;;;2.97;;
3491;SDS011;1760;52.480;13.422;2022-11-12T07:28:26;11.13;;;2.77;;
3491;SDS011;1760;52.480;13.422;2022-11-12T07:30:53;4.63;;;3.60;;
3491;SDS011;1760;52.480;13.422;2022-11-12T07:33:22;4.23;;;3.27;;
3491;SDS011;1760;52.480;13.422;2022-11-12T07:35:55;3.70;;;3.30;;
3491;SDS011;1760;52.480;13.422;2022-11-12T07:38:22;3.33;;;2.80;;
3491;SDS011;1760;52.480;13.422;2022-11-12T07:40:51;4.13;;;2.80;;
3491;SDS011;1760;52.480;13.422;2022-11-12T07:43:24;2.73;;;2.40;;
3491;SDS011;1760;52.480;13.422;2022-11-12T07:45:51;5.63;;;3.63;;
3491;SDS011;1760;52.480;13.422;2022-11-12T07:48:18;3.30;;;3.00;;
3491;SDS011;1760;52.480;13.422;2022-11-12T07:50:45;4.40;;;3.03;;
3491;SDS011;1760;52.480;13.422;2022-11-12T07:53:12;6.80;;;2.77;;
3491;SDS011;1760;52.480;13.422;2022-11-12T07:55:39;3.63;;;3.30;;
3491;SDS011;1760;52.480;13.422;2022-11-12T07:58:06;3.77;;;3.10;;
3491;SDS011;1760;52.480;13.422;2022-11-12T08:00:34;3.60;;;2.80;;
3491;SDS011;1760;52.480;13.422;2022-11-12T08:03:01;6.03;;;2.83;;
3491;SDS011;1760;52.480;13.422;2022-11-12T08:05:28;2.93;;;2.63;;
3491;SDS011;1760;52.480;13.422;2022-11-12T08:07:55;4.30;;;3.27;;
3491;SDS011;1760;52.480;13.422;2022-11-12T08:10:24;6.93;;;3.93;;
3491;SDS011;1760;52.480;13.422;2022-11-12T08:12:51;5.07;;;2.90;;
3491;SDS011;1760;52.480;13.422;2022-11-12T08:15:21;7.53;;;3.47;;
3491;SDS011;1760;52.480;13.422;2022-11-12T08:17:50;6.60;;;3.50;;
3491;SDS011;1760;52.480;13.422;2022-11-12T08:20:17;4.40;;;3.47;;
3491;SDS011;1760;52.480;13.422;2022-11-12T08:22:44;5.63;;;3.57;;
3491;SDS011;1760;52.480;13.422;2022-11-12T08:25:11;4.60;;;2.90;;
3491;SDS011;1760;52.480;13.422;2022-11-12T08:27:39;3.97;;;2.80;;
3491;SDS011;1760;52.480;13.422;2022-11-12T08:30:06;7.23;;;3.50;;
3491;SDS011;1760;52.480;13.422;2022-11-12T08:32:34;6.67;;;3.97;;
3491;SDS011;1760;52.480;13.422;2022-11-12T08:35:02;4.33;;;3.70;;
3491;SDS011;1760;52.480;13.422;2022-11-12T08:37:29;5.30;;;4.20;;
3491;SDS011;1760;52.480;13.422;2022-11-12T08:39:56;7.23;;;4.90;;
3491;SDS011;1760;52.480;13.422;2022-11-12T08:42:23;4.17;;;3.80;;
3491;SDS011;1760;52.480;13.422;2022-11-12T08:44:50;5.30;;;4.33;;
3491;SDS011;1760;52.480;13.422;2022-11-12T08:47:17;5.40;;;3.87;;
3491;SDS011;1760;52.480;13.422;2022-11-12T08:49:44;5.00;;;3.63;;
3491;SDS011;1760;52.480;13.422;2022-11-12T08:52:12;5.90;;;4.07;;
3491;SDS011;1760;52.480;13.422;2022-11-12T08:54:39;5.40;;;3.57;;
3491;SDS011;1760;52.480;13.422;2022-11-12T08:57:06;6.00;;;3.80;;
3491;SDS011;1760;52.480;13.422;2022-11-12T08:59:33;5.00;;;3.60;;
3491;SDS011;1760;52.480;13.422;2022-11-12T09:02:02;8.07;;;4.10;;
3491;SDS011;1760;52.480;13.422;2022-11-12T09:04:30;4.50;;;3.73;;
3491;SDS011;1760;52.480;13.422;2022-11-12T09:06:57;5.33;;;3.30;;
3491;SDS011;1760;52.480;13.422;2022-11-12T09:09:25;12.27;;;4.10;;
3491;SDS011;1760;52.480;13.422;2022-11-12T09:11:52;8.40;;;4.33;;
3491;SDS011;1760;52.480;13.422;2022-11-12T09:14:19;8.83;;;4.53;;
3491;SDS011;1760;52.480;13.422;2022-11-12T09:16:46;6.23;;;5.20;;
3491;SDS011;1760;52.480;13.422;2022-11-12T09:19:13;8.93;;;5.03;;
3491;SDS011;1760;52.480;13.422;2022-11-12T09:21:40;8.30;;;4.93;;
3491;SDS011;1760;52.480;13.422;2022-11-12T09:24:07;6.40;;;4.37;;
3491;SDS011;1760;52.480;13.422;2022-11-12T09:26:35;6.80;;;4.67;;
3491;SDS011;1760;52.480;13.422;2022-11-12T09:29:02;5.77;;;4.10;;
3491;SDS011;1760;52.480;13.422;2022-11-12T09:31:29;6.70;;;4.73;;
3491;SDS011;1760;52.480;13.422;2022-11-12T09:33:56;8.53;;;4.90;;
3491;SDS011;1760;52.480;13.422;2022-11-12T09:36:25;6.80;;;4.50;;
3491;SDS011;1760;52.480;13.422;2022-11-12T09:38:51;7.73;;;5.47;;
3491;SDS011;1760;52.480;13.422;2022-11-12T09:41:20;7.83;;;4.57;;
3491;SDS011;1760;52.480;13.422;2022-11-12T09:43:53;7.10;;;5.40;;
3491;SDS011;1760;52.480;13.422;2022-11-12T09:46:24;6.70;;;5.53;;
3491;SDS011;1760;52.480;13.422;2022-11-12T09:48:58;10.30;;;5.50;;
3491;SDS011;1760;52.480;13.422;2022-11-12T09:51:29;11.60;;;5.90;;
3491;SDS011;1760;52.480;13.422;2022-11-12T09:54:00;10.70;;;5.60;;
3491;SDS011;1760;52.480;13.422;2022-11-12T09:56:32;11.13;;;6.63;;
3491;SDS011;1760;52.480;13.422;2022-11-12T09:59:00;10.70;;;6.00;;
3491;SDS011;1760;52.480;13.422;2022-11-12T10:01:35;8.63;;;6.10;;
3491;SDS011;1760;52.480;13.422;2022-11-12T10:04:15;8.17;;;5.63;;
3491;SDS011;1760;52.480;13.422;2022-11-12T10:07:08;11.03;;;5.73;;
3491;SDS011;1760;52.480;13.422;2022-11-12T10:09:40;10.50;;;6.17;;
3491;SDS011;1760;52.480;13.422;2022-11-12T10:12:17;6.90;;;5.23;;
3491;SDS011;1760;52.480;13.422;2022-11-12T10:15:10;6.17;;;4.90;;
3491;SDS011;1760;52.480;13.422;2022-11-12T10:18:05;9.87;;;6.57;;
3491;SDS011;1760;52.480;13.422;2022-11-12T10:20:40;6.30;;;5.37;;
3491;SDS011;1760;52.480;13.422;2022-11-12T10:23:15;9.93;;;5.60;;
3491;SDS011;1760;52.480;13.422;2022-11-12T10:25:44;12.17;;;6.47;;
3491;SDS011;1760;52.480;13.422;2022-11-12T10:31:04;12.23;;;7.00;;
3491;SDS011;1760;52.480;13.422;2022-11-12T10:33:36;13.43;;;5.37;;
3491;SDS011;1760;52.480;13.422;2022-11-12T10:36:23;9.40;;;6.60;;
3491;SDS011;1760;52.480;13.422;2022-11-12T10:38:54;12.20;;;6.17;;
3491;SDS011;1760;52.480;13.422;2022-11-12T10:41:23;6.43;;;4.53;;
3491;SDS011;1760;52.480;13.422;2022-11-12T10:43:57;9.33;;;5.93;;
3491;SDS011;1760;52.480;13.422;2022-11-12T10:46:27;10.40;;;5.00;;
3491;SDS011;1760;52.480;13.422;2022-11-12T10:48:59;9.40;;;5.50;;
3491;SDS011;1760;52.480;13.422;2022-11-12T10:51:29;14.90;;;6.70;;
3491;SDS011;1760;52.480;13.422;2022-11-12T10:53:58;8.83;;;5.20;;
3491;SDS011;1760;52.480;13.422;2022-11-12T10:56:43;12.80;;;5.67;;
3491;SDS011;1760;52.480;13.422;2022-11-12T10:59:15;13.67;;;5.50;;
3491;SDS011;1760;52.480;13.422;2022-11-12T11:01:44;9.10;;;5.50;;
3491;SDS011;1760;52.480;13.422;2022-11-12T11:04:22;8.80;;;6.00;;
3491;SDS011;1760;52.480;13.422;2022-11-12T11:06:58;10.43;;;6.77;;
3491;SDS011;1760;52.480;13.422;2022-11-12T11:09:28;11.60;;;5.90;;
3491;SDS011;1760;52.480;13.422;2022-11-12T11:11:55;9.93;;;4.60;;
3491;SDS011;1760;52.480;13.422;2022-11-12T11:14:24;7.40;;;4.80;;
3491;SDS011;1760;52.480;13.422;2022-11-12T11:16:54;7.70;;;5.70;;
3491;SDS011;1760;52.480;13.422;2022-11-12T11:19:24;8.93;;;5.23;;
3491;SDS011;1760;52.480;13.422;2022-11-12T11:22:05;9.10;;;6.10;;
3491;SDS011;1760;52.480;13.422;2022-11-12T11:24:56;11.53;;;4.70;;
3491;SDS011;1760;52.480;13.422;2022-11-12T11:27:48;7.87;;;5.03;;
3491;SDS011;1760;52.480;13.422;2022-11-12T11:30:26;9.33;;;5.70;;
3491;SDS011;1760;52.480;13.422;2022-11-12T11:33:08;13.33;;;5.90;;
3491;SDS011;1760;52.480;13.422;2022-11-12T11:35:51;8.70;;;5.00;;
3491;SDS011;1760;52.480;13.422;2022-11-12T11:38:28;13.10;;;4.93;;
3491;SDS011;1760;52.480;13.422;2022-11-12T11:41:02;7.47;;;4.80;;
3491;SDS011;1760;52.480;13.422;2022-11-12T11:43:46;7.73;;;6.03;;
3491;SDS011;1760;52.480;13.422;2022-11-12T11:46:25;8.53;;;4.67;;
3491;SDS011;1760;52.480;13.422;2022-11-12T11:52:06;9.47;;;5.60;;
3491;SDS011;1760;52.480;13.422;2022-11-12T11:54:58;10.47;;;4.47;;
3491;SDS011;1760;52.480;13.422;2022-11-12T11:57:40;11.17;;;4.60;;
3491;SDS011;1760;52.480;13.422;2022-11-12T12:00:14;5.93;;;4.83;;
3491;SDS011;1760;52.480;13.422;2022-11-12T12:02:48;9.77;;;5.47;;
3491;SDS011;1760;52.480;13.422;2022-11-12T12:05:49;8.20;;;4.57;;
3491;SDS011;1760;52.480;13.422;2022-11-12T12:08:35;7.77;;;4.27;;
3491;SDS011;1760;52.480;13.422;2022-11-12T12:11:14;9.17;;;4.13;;
3491;SDS011;1760;52.480;13.422;2022-11-12T12:13:50;11.50;;;6.33;;
3491;SDS011;1760;52.480;13.422;2022-11-12T12:16:51;11.07;;;5.23;;
3491;SDS011;1760;52.480;13.422;2022-11-12T12:19:34;7.50;;;4.80;;
3491;SDS011;1760;52.480;13.422;2022-11-12T12:22:11;6.30;;;4.20;;
3491;SDS011;1760;52.480;13.422;2022-11-12T12:24:42;8.20;;;5.77;;
3491;SDS011;1760;52.480;13.422;2022-11-12T12:27:15;6.70;;;4.67;;
3491;SDS011;1760;52.480;13.422;2022-11-12T12:29:46;7.00;;;4.67;;
3491;SDS011;1760;52.480;13.422;2022-11-12T12:32:20;7.63;;;4.70;;
3491;SDS011;1760;52.480;13.422;2022-11-12T12:34:51;6.87;;;4.47;;
3491;SDS011;1760;52.480;13.422;2022-11-12T12:37:25;9.93;;;5.17;;
3491;SDS011;1760;52.480;13.422;2022-11-12T12:40:02;9.50;;;5.50;;
3491;SDS011;1760;52.480;13.422;2022-11-12T12:42:36;6.03;;;4.30;;
3491;SDS011;1760;52.480;13.422;2022-11-12T12:45:16;14.87;;;5.20;;
3491;SDS011;1760;52.480;13.422;2022-11-12T12:47:51;6.93;;;4.00;;
3491;SDS011;1760;52.480;13.422;2022-11-12T12:50:20;10.67;;;4.30;;
3491;SDS011;1760;52.480;13.422;2022-11-12T12:53:01;6.00;;;4.07;;
3491;SDS011;1760;52.480;13.422;2022-11-12T12:55:34;8.10;;;4.70;;
3491;SDS011;1760;52.480;13.422;2022-11-12T12:58:04;11.10;;;4.60;;
3491;SDS011;1760;52.480;13.422;2022-11-12T13:00:41;9.03;;;5.37;;
3491;SDS011;1760;52.480;13.422;2022-11-12T13:03:14;9.20;;;5.17;;
3491;SDS011;1760;52.480;13.422;2022-11-12T13:06:13;18.53;;;5.20;;
3491;SDS011;1760;52.480;13.422;2022-11-12T13:08:48;10.80;;;7.13;;
3491;SDS011;1760;52.480;13.422;2022-11-12T13:17:43;7.87;;;5.07;;
3491;SDS011;1760;52.480;13.422;2022-11-12T13:20:15;9.27;;;5.60;;
3491;SDS011;1760;52.480;13.422;2022-11-12T13:23:00;10.60;;;4.60;;
3491;SDS011;1760;52.480;13.422;2022-11-12T13:25:29;8.60;;;5.07;;
3491;SDS011;1760;52.480;13.422;2022-11-12T13:28:04;12.43;;;5.47;;
3491;SDS011;1760;52.480;13.422;2022-11-12T13:33:30;9.20;;;5.30;;
3491;SDS011;1760;52.480;13.422;2022-11-12T13:38:50;9.33;;;5.97;;
3491;SDS011;1760;52.480;13.422;2022-11-12T13:41:20;13.40;;;6.20;;
3491;SDS011;1760;52.480;13.422;2022-11-12T13:44:03;11.23;;;7.00;;
3491;SDS011;1760;52.480;13.422;2022-11-12T13:46:33;11.07;;;5.13;;
3491;SDS011;1760;52.480;13.422;2022-11-12T13:49:00;8.03;;;5.10;;
3491;SDS011;1760;52.480;13.422;2022-11-12T13:51:36;10.10;;;6.10;;
3491;SDS011;1760;52.480;13.422;2022-11-12T13:54:27;9.10;;;5.40;;
3491;SDS011;1760;52.480;13.422;2022-11-12T14:11:06;10.37;;;5.77;;
3491;SDS011;1760;52.480;13.422;2022-11-12T14:13:49;13.60;;;5.80;;
3491;SDS011;1760;52.480;13.422;2022-11-12T14:16:33;9.77;;;5.03;;
3491;SDS011;1760;52.480;13.422;2022-11-12T14:19:11;9.77;;;5.53;;
3491;SDS011;1760;52.480;13.422;2022-11-12T14:22:09;6.80;;;5.33;;
3491;SDS011;1760;52.480;13.422;2022-11-12T14:24:38;9.70;;;5.20;;
3491;SDS011;1760;52.480;13.422;2022-11-12T14:27:21;8.60;;;5.20;;
3491;SDS011;1760;52.480;13.422;2022-11-12T14:30:03;12.60;;;7.03;;
3491;SDS011;1760;52.480;13.422;2022-11-12T14:32:37;6.87;;;5.90;;
3491;SDS011;1760;52.480;13.422;2022-11-12T14:41:17;8.33;;;5.37;;
3491;SDS011;1760;52.480;13.422;2022-11-12T14:43:47;10.03;;;5.60;;
3491;SDS011;1760;52.480;13.422;2022-11-12T14:46:21;11.60;;;5.03;;
3491;SDS011;1760;52.480;13.422;2022-11-12T14:48:51;12.93;;;6.03;;
3491;SDS011;1760;52.480;13.422;2022-11-12T14:51:22;9.33;;;6.03;;
3491;SDS011;1760;52.480;13.422;2022-11-12T14:53:53;14.50;;;5.23;;
3491;SDS011;1760;52.480;13.422;2022-11-12T14:56:25;12.30;;;6.37;;
3491;SDS011;1760;52.480;13.422;2022-11-12T14:58:57;10.80;;;6.37;;
3491;SDS011;1760;52.480;13.422;2022-11-12T15:01:25;7.40;;;5.57;;
3491;SDS011;1760;52.480;13.422;2022-11-12T15:04:02;14.53;;;6.10;;
3491;SDS011;1760;52.480;13.422;2022-11-12T15:06:41;10.77;;;6.40;;
3491;SDS011;1760;52.480;13.422;2022-11-12T15:09:16;14.00;;;6.87;;
3491;SDS011;1760;52.480;13.422;2022-11-12T15:11:45;12.07;;;6.20;;
3491;SDS011;1760;52.480;13.422;2022-11-12T15:14:20;13.67;;;6.70;;
3491;SDS011;1760;52.480;13.422;2022-11-12T15:16:49;13.87;;;7.63;;
3491;SDS011;1760;52.480;13.422;2022-11-12T15:19:17;16.60;;;7.43;;
3491;SDS011;1760;52.480;13.422;2022-11-12T15:21:47;13.27;;;6.83;;
3491;SDS011;1760;52.480;13.422;2022-11-12T15:24:16;16.70;;;7.80;;
3491;SDS011;1760;52.480;13.422;2022-11-12T15:26:55;11.53;;;7.00;;
3491;SDS011;1760;52.480;13.422;2022-11-12T15:29:30;12.10;;;5.30;;
3491;SDS011;1760;52.480;13.422;2022-11-12T15:31:59;13.43;;;7.70;;
3491;SDS011;1760;52.480;13.422;2022-11-12T15:34:43;14.53;;;7.40;;
3491;SDS011;1760;52.480;13.422;2022-11-12T15:37:18;26.90;;;8.13;;
3491;SDS011;1760;52.480;13.422;2022-11-12T15:39:48;12.87;;;7.10;;
3491;SDS011;1760;52.480;13.422;2022-11-12T15:42:20;11.70;;;7.80;;
3491;SDS011;1760;52.480;13.422;2022-11-12T15:44:52;16.50;;;8.57;;
3491;SDS011;1760;52.480;13.422;2022-11-12T15:47:23;16.00;;;8.60;;
3491;SDS011;1760;52.480;13.422;2022-11-12T15:49:51;11.03;;;7.63;;
3491;SDS011;1760;52.480;13.422;2022-11-12T15:52:19;16.37;;;7.10;;
3491;SDS011;1760;52.480;13.422;2022-11-12T15:54:46;11.77;;;7.77;;
3491;SDS011;1760;52.480;13.422;2022-11-12T15:57:13;15.33;;;8.43;;
3491;SDS011;1760;52.480;13.422;2022-11-12T15:59:42;12.70;;;7.03;;